Time;durP1;ratioP1;P1;durP2;ratioP2;P2;SDS_P1;SDS_P2;PMS_P1;PMS_P2;Temp;Humidity;BMP_temperature;BMP_pressure;BME280_temperature;BME280_humidity;BME280_pressure;Samples;Min_cycle;Max_cycle;Signal;HPM_P1;HPM_P2
2023/09/01 00:00:29;;;;;;;11.40;8.20;;;;;;;11.52;100.00;101128.41;5035633;28;20028;-67
2023/09/01 00:02:54;;;;;;;12.13;7.95;;;;;;;11.54;100.00;101131.91;5041790;28;20032;-66
2023/09/01 00:05:20;;;;;;;17.80;8.20;;;;;;;11.54;100.00;101124.88;5035577;28;20032;-66
2023/09/01 00:07:45;;;;;;;12.75;8.18;;;;;;;11.55;100.00;101131.00;5021773;28;20024;-67
2023/09/01 00:10:11;;;;;;;13.23;7.63;;;;;;;11.52;100.00;101117.91;5013956;28;20040;-67
2023/09/01 00:12:36;;;;;;;12.32;8.02;;;;;;;11.55;100.00;101110.88;5014194;28;20060;-66
2023/09/01 00:15:03;;;;;;;14.10;7.97;;;;;;;11.57;100.00;101108.25;5058413;28;20052;-66
2023/09/01 00:17:28;;;;;;;14.43;8.43;;;;;;;11.51;100.00;101103.06;5066700;28;20031;-66
2023/09/01 00:19:54;;;;;;;14.48;8.07;;;;;;;11.51;100.00;101092.56;5045636;28;20373;-67
2023/09/01 00:22:19;;;;;;;12.32;8.23;;;;;;;11.46;100.00;101086.50;5065517;28;20021;-66
2023/09/01 00:24:44;;;;;;;9.75;7.30;;;;;;;11.44;100.00;101103.13;5039639;28;20032;-66
2023/09/01 00:27:10;;;;;;;11.80;7.75;;;;;;;11.36;100.00;101104.94;5033771;28;20106;-66
2023/09/01 00:29:37;;;;;;;12.38;7.50;;;;;;;11.36;100.00;101112.81;5032418;28;20033;-66
2023/09/01 00:32:02;;;;;;;12.40;7.53;;;;;;;11.39;100.00;101112.81;5032502;28;20025;-66
2023/09/01 00:34:30;;;;;;;12.65;8.05;;;;;;;11.38;100.00;101118.09;5012194;28;20446;-66
2023/09/01 00:36:56;;;;;;;14.43;8.13;;;;;;;11.36;100.00;101104.94;5052951;28;20021;-68
2023/09/01 00:39:21;;;;;;;13.52;8.00;;;;;;;11.39;100.00;101102.31;5039790;28;20040;-69
2023/09/01 00:41:47;;;;;;;14.48;8.02;;;;;;;11.34;100.00;101098.88;5004977;28;20026;-69
2023/09/01 00:44:14;;;;;;;11.45;7.22;;;;;;;11.20;100.00;101090.28;5029493;28;20421;-68
2023/09/01 00:46:46;;;;;;;15.10;7.78;;;;;;;11.16;100.00;101091.19;5021779;28;20057;-69
2023/09/01 00:49:12;;;;;;;15.07;8.30;;;;;;;11.21;100.00;101082.38;5039722;28;20032;-68
2023/09/01 00:51:38;;;;;;;14.43;8.38;;;;;;;11.19;100.00;101080.66;5044193;28;20057;-68
2023/09/01 00:54:04;;;;;;;10.65;7.70;;;;;;;11.31;100.00;101080.53;5045907;28;20064;-69
2023/09/01 00:56:30;;;;;;;12.88;8.07;;;;;;;11.20;100.00;101077.16;5042812;28;20396;-68
2023/09/01 00:58:55;;;;;;;13.13;7.78;;;;;;;11.23;100.00;101079.75;5067030;28;20377;-68
2023/09/01 01:01:21;;;;;;;13.65;8.18;;;;;;;11.17;100.00;101078.06;5030609;28;20033;-69
2023/09/01 01:03:49;;;;;;;13.98;8.65;;;;;;;11.23;100.00;101078.00;5029258;28;20040;-68
2023/09/01 01:06:15;;;;;;;13.50;8.88;;;;;;;11.31;100.00;101074.44;5050493;28;20115;-67
2023/09/01 01:09:00;;;;;;;12.15;8.82;;;;;;;11.35;100.00;101077.00;5048223;28;20041;-66
2023/09/01 01:11:44;;;;;;;17.33;10.00;;;;;;;11.41;100.00;101084.78;5062005;28;20094;-66
2023/09/01 01:14:16;;;;;;;13.05;8.00;;;;;;;11.42;100.00;101093.53;5051341;28;20051;-67
2023/09/01 01:16:42;;;;;;;12.80;8.30;;;;;;;11.46;100.00;101094.38;5058186;28;20025;-66
2023/09/01 01:19:20;;;;;;;15.80;9.32;;;;;;;11.46;100.00;101099.63;5055278;28;20033;-66
2023/09/01 01:21:50;;;;;;;17.13;9.60;;;;;;;11.44;100.00;101102.25;5046136;28;20037;-67
2023/09/01 01:24:19;;;;;;;16.70;9.55;;;;;;;11.49;100.00;101089.94;5055047;28;20426;-67
2023/09/01 01:26:44;;;;;;;13.68;9.35;;;;;;;11.51;100.00;101096.06;5039047;28;20036;-66
2023/09/01 01:29:10;;;;;;;16.33;9.82;;;;;;;11.50;100.00;101090.84;5023565;28;20040;-66
2023/09/01 01:31:38;;;;;;;18.98;9.80;;;;;;;11.50;100.00;101096.94;5037135;28;20032;-66
2023/09/01 01:34:19;;;;;;;14.75;9.52;;;;;;;11.55;100.00;101096.88;5042164;28;20060;-66
2023/09/01 01:37:04;;;;;;;17.25;9.68;;;;;;;11.54;100.00;101095.16;5057791;28;20020;-66
2023/09/01 01:39:33;;;;;;;15.82;10.48;;;;;;;11.54;100.00;101105.66;5069889;28;20042;-67
2023/09/01 01:42:07;;;;;;;17.02;9.68;;;;;;;11.52;100.00;101095.19;5059520;28;20078;-66
2023/09/01 01:44:36;;;;;;;14.23;9.52;;;;;;;11.49;100.00;101095.19;5054593;28;20108;-66
2023/09/01 01:47:03;;;;;;;15.20;9.10;;;;;;;11.40;100.00;101090.91;5053855;28;20116;-66
2023/09/01 01:49:28;;;;;;;14.60;10.18;;;;;;;11.49;100.00;101100.44;5049897;28;20025;-66
2023/09/01 01:51:54;;;;;;;13.77;11.02;;;;;;;11.52;100.00;101100.44;5048074;28;20028;-66
2023/09/01 01:54:19;;;;;;;16.88;10.80;;;;;;;11.56;100.00;101103.88;5052332;28;20041;-66
2023/09/01 01:56:44;;;;;;;14.25;10.77;;;;;;;11.60;100.00;101102.94;5038311;28;20032;-66
2023/09/01 01:59:10;;;;;;;13.88;9.93;;;;;;;11.62;100.00;101095.91;5052144;28;20119;-66
2023/09/01 02:01:36;;;;;;;14.70;10.95;;;;;;;11.64;100.00;101091.53;5044408;28;20017;-66
2023/09/01 02:04:05;;;;;;;15.13;10.50;;;;;;;11.66;100.00;101096.75;5022076;28;20045;-66
2023/09/01 02:06:30;;;;;;;14.95;11.15;;;;;;;11.67;100.00;101094.13;5060143;28;20017;-66
2023/09/01 02:08:56;;;;;;;14.57;10.45;;;;;;;11.66;100.00;101086.25;5058320;28;20497;-67
2023/09/01 02:11:21;;;;;;;18.05;12.18;;;;;;;11.70;100.00;101088.81;5019090;28;20029;-66
2023/09/01 02:13:47;;;;;;;15.70;10.15;;;;;;;11.72;100.00;101091.44;5035157;28;20051;-66
2023/09/01 02:16:12;;;;;;;15.57;10.52;;;;;;;11.72;100.00;101083.56;5047056;28;20078;-66
2023/09/01 02:18:38;;;;;;;14.68;10.10;;;;;;;11.73;100.00;101085.28;5040274;28;20036;-66
2023/09/01 02:21:05;;;;;;;16.08;11.35;;;;;;;11.74;100.00;101093.16;5027568;28;20044;-66
2023/09/01 02:23:30;;;;;;;16.33;10.98;;;;;;;11.74;100.00;101082.66;5024104;28;20025;-66
2023/09/01 02:25:56;;;;;;;15.23;10.70;;;;;;;11.76;100.00;101083.50;5047864;28;20027;-66
2023/09/01 02:28:21;;;;;;;15.98;10.55;;;;;;;11.82;100.00;101081.69;5045480;28;20112;-67
2023/09/01 02:30:47;;;;;;;15.70;11.02;;;;;;;11.83;100.00;101078.19;5035669;28;20040;-67
2023/09/01 02:33:12;;;;;;;15.90;11.07;;;;;;;11.84;100.00;101083.41;5048156;28;20037;-67
2023/09/01 02:35:45;;;;;;;14.88;10.30;;;;;;;11.89;100.00;101085.97;5051204;28;20074;-66
2023/09/01 02:38:11;;;;;;;15.35;11.27;;;;;;;11.88;100.00;101092.97;5064353;28;20488;-66
2023/09/01 02:40:39;;;;;;;18.23;11.18;;;;;;;11.90;100.00;101093.81;5069231;28;20413;-67
2023/09/01 02:43:05;;;;;;;13.38;10.43;;;;;;;11.92;100.00;101083.28;5047973;28;20088;-67
2023/09/01 02:45:31;;;;;;;16.30;11.02;;;;;;;11.94;100.00;101077.16;5033716;28;20203;-66
2023/09/01 02:47:57;;;;;;;14.70;10.55;;;;;;;11.93;100.00;101074.53;5042552;28;20040;-66
2023/09/01 02:50:22;;;;;;;16.33;11.52;;;;;;;11.98;100.00;101067.47;5054064;28;20063;-66
2023/09/01 02:52:48;;;;;;;13.27;10.73;;;;;;;11.96;100.00;101078.00;5034811;28;20219;-66
2023/09/01 02:55:17;;;;;;;15.05;11.70;;;;;;;11.99;100.00;101074.47;5070981;28;20127;-66
2023/09/01 02:57:45;;;;;;;16.67;12.15;;;;;;;12.03;100.00;101073.53;5068603;28;20060;-66
2023/09/01 03:00:21;;;;;;;16.25;11.52;;;;;;;12.09;100.00;101075.22;5034405;28;20043;-67
2023/09/01 03:02:47;;;;;;;15.68;11.68;;;;;;;12.15;100.00;101084.78;5035990;28;20032;-66
2023/09/01 03:05:13;;;;;;;15.63;12.02;;;;;;;12.12;100.00;101083.94;5052095;28;20028;-67
2023/09/01 03:07:39;;;;;;;15.90;11.10;;;;;;;12.11;100.00;101074.31;5068543;28;20016;-67
2023/09/01 03:10:07;;;;;;;13.23;11.13;;;;;;;12.08;100.00;101074.38;5052704;28;20020;-66
2023/09/01 03:12:34;;;;;;;16.40;11.98;;;;;;;12.10;100.00;101076.97;5029284;28;20113;-67
2023/09/01 03:14:59;;;;;;;17.60;11.35;;;;;;;12.13;100.00;101071.66;5051175;28;20028;-67
2023/09/01 03:17:24;;;;;;;15.60;11.90;;;;;;;12.19;100.00;101065.44;5035688;28;20036;-67
2023/09/01 03:19:50;;;;;;;15.50;10.90;;;;;;;12.19;100.00;101060.19;5021086;28;20389;-67
2023/09/01 03:22:15;;;;;;;14.93;11.15;;;;;;;12.20;100.00;101068.06;5059900;28;20413;-66
2023/09/01 03:24:41;;;;;;;13.82;10.63;;;;;;;12.22;100.00;101068.03;5013684;28;20064;-67
2023/09/01 03:27:06;;;;;;;14.10;10.45;;;;;;;12.21;100.00;101077.69;5030512;28;20086;-66
2023/09/01 03:29:32;;;;;;;15.18;10.38;;;;;;;12.25;100.00;101079.34;5044109;28;20472;-67
2023/09/01 03:31:57;;;;;;;14.80;10.80;;;;;;;12.24;100.00;101074.13;5048335;28;20032;-67
2023/09/01 03:34:23;;;;;;;13.02;10.23;;;;;;;12.24;100.00;101068.84;5040981;28;20029;-67
2023/09/01 03:36:49;;;;;;;13.27;10.10;;;;;;;12.23;100.00;101056.63;5033353;28;20515;-66
2023/09/01 03:39:15;;;;;;;15.63;10.25;;;;;;;12.26;100.00;101060.06;5014250;28;20048;-66
2023/09/01 03:41:41;;;;;;;15.63;9.70;;;;;;;12.29;100.00;101067.91;5014242;28;20400;-67
2023/09/01 03:44:07;;;;;;;16.15;10.20;;;;;;;12.31;100.00;101067.88;5025971;28;20057;-66
2023/09/01 03:46:32;;;;;;;14.15;9.82;;;;;;;12.33;100.00;101066.09;5032264;28;20031;-66
2023/09/01 03:48:58;;;;;;;18.42;10.10;;;;;;;12.34;100.00;101054.72;5029466;28;20036;-67
2023/09/01 03:51:23;;;;;;;15.85;9.82;;;;;;;12.35;100.00;101043.28;5053271;28;20500;-67
2023/09/01 03:53:49;;;;;;;13.82;10.02;;;;;;;12.36;100.00;101046.81;5070015;28;20085;-66
2023/09/01 03:56:17;;;;;;;16.83;9.80;;;;;;;12.34;100.00;101046.84;5052693;28;20036;-66
2023/09/01 03:58:43;;;;;;;13.68;10.15;;;;;;;12.35;100.00;101051.16;5051762;28;20033;-66
2023/09/01 04:01:11;;;;;;;11.38;9.48;;;;;;;12.36;100.00;101052.06;5063058;28;20021;-66
2023/09/01 04:03:44;;;;;;;11.00;9.15;;;;;;;12.37;100.00;101057.28;5044906;28;20431;-67
2023/09/01 04:06:10;;;;;;;18.63;10.48;;;;;;;12.39;100.00;101052.88;5069496;28;20063;-66
2023/09/01 04:08:37;;;;;;;15.70;9.65;;;;;;;12.38;100.00;101045.00;5069558;28;20016;-66
2023/09/01 04:11:03;;;;;;;13.57;9.73;;;;;;;12.38;100.00;101045.84;5066118;28;20037;-67
2023/09/01 04:13:29;;;;;;;14.60;11.27;;;;;;;12.38;100.00;101035.34;5038590;28;20032;-66
2023/09/01 04:15:58;;;;;;;14.80;10.15;;;;;;;12.36;100.00;101042.41;5015137;28;20033;-69
2023/09/01 04:18:24;;;;;;;15.40;10.95;;;;;;;12.36;100.00;101045.03;5046575;28;20025;-69
2023/09/01 04:20:51;;;;;;;14.10;11.18;;;;;;;12.37;100.00;101043.25;5033493;28;20394;-66
2023/09/01 04:23:17;;;;;;;17.42;10.70;;;;;;;12.38;100.00;101043.22;5061945;28;20021;-66
2023/09/01 04:25:48;;;;;;;13.15;10.70;;;;;;;12.40;100.00;101048.50;5052117;28;20028;-67
2023/09/01 04:28:15;;;;;;;14.00;10.80;;;;;;;12.43;100.00;101043.19;5053015;28;20060;-66
2023/09/01 04:30:42;;;;;;;14.00;10.85;;;;;;;12.43;100.00;101049.31;5071290;28;20028;-67
2023/09/01 04:33:07;;;;;;;16.52;11.43;;;;;;;12.44;100.00;101043.16;5060786;28;20385;-67
2023/09/01 04:35:33;;;;;;;13.32;11.27;;;;;;;12.44;100.00;101045.78;5062283;28;20024;-66
2023/09/01 04:37:59;;;;;;;14.88;11.20;;;;;;;12.42;100.00;101042.28;5053723;28;20041;-66
2023/09/01 04:40:28;;;;;;;15.10;11.68;;;;;;;12.46;100.00;101046.63;5038872;28;20470;-67
2023/09/01 04:42:54;;;;;;;16.30;11.23;;;;;;;12.47;100.00;101045.72;5053105;28;20052;-67
2023/09/01 04:45:19;;;;;;;14.95;11.02;;;;;;;12.46;100.00;101046.63;5047212;28;20044;-66
2023/09/01 04:47:45;;;;;;;17.27;10.85;;;;;;;12.48;100.00;101050.09;5029609;28;20033;-66
2023/09/01 04:50:10;;;;;;;14.93;11.05;;;;;;;12.50;100.00;101052.72;5033779;28;20029;-66
2023/09/01 04:52:39;;;;;;;14.48;10.40;;;;;;;12.52;100.00;101060.56;5044508;28;20057;-66
2023/09/01 04:55:05;;;;;;;15.02;10.68;;;;;;;12.54;100.00;101056.13;5017357;28;20086;-66
2023/09/01 04:57:31;;;;;;;18.63;11.07;;;;;;;12.55;100.00;101060.50;5031344;28;20037;-67
2023/09/01 04:59:56;;;;;;;12.57;10.75;;;;;;;12.54;100.00;101053.50;5071792;28;20036;-67
2023/09/01 05:02:22;;;;;;;14.27;10.52;;;;;;;12.57;100.00;101058.72;5072250;28;20028;-67
2023/09/01 05:04:48;;;;;;;16.50;10.90;;;;;;;12.58;100.00;101057.81;5073638;28;20059;-67
2023/09/01 05:07:14;;;;;;;13.52;10.05;;;;;;;12.60;100.00;101048.16;5053684;28;20479;-66
2023/09/01 05:09:39;;;;;;;14.77;11.00;;;;;;;12.60;100.00;101040.28;5024151;28;20033;-67
2023/09/01 05:12:05;;;;;;;15.10;10.18;;;;;;;12.62;100.00;101043.75;5028753;28;20037;-66
2023/09/01 05:14:30;;;;;;;14.02;10.27;;;;;;;12.64;100.00;101049.81;5056917;28;20430;-67
2023/09/01 05:16:56;;;;;;;14.48;10.10;;;;;;;12.65;100.00;101048.94;5043501;28;20028;-67
2023/09/01 05:19:24;;;;;;;15.35;10.20;;;;;;;12.69;100.00;101055.03;5053303;28;20501;-67
2023/09/01 05:21:50;;;;;;;20.23;10.77;;;;;;;12.67;100.00;101055.06;5055507;28;20016;-67
2023/09/01 05:24:15;;;;;;;12.52;10.20;;;;;;;12.69;100.00;101050.63;5006715;28;20124;-67
2023/09/01 05:26:41;;;;;;;13.70;10.55;;;;;;;12.70;100.00;101051.47;5033105;28;20029;-67
2023/09/01 05:29:06;;;;;;;13.10;10.93;;;;;;;12.72;100.00;101053.19;5018454;28;20041;-67
2023/09/01 05:31:31;;;;;;;15.07;10.40;;;;;;;12.74;100.00;101059.31;5043525;28;20078;-66
2023/09/01 05:33:59;;;;;;;15.00;10.30;;;;;;;12.81;100.00;101060.06;5060939;28;20040;-66
2023/09/01 05:36:26;;;;;;;13.25;10.55;;;;;;;12.79;100.00;101054.81;5002502;28;20032;-66
2023/09/01 05:38:51;;;;;;;13.05;10.55;;;;;;;12.83;100.00;101053.03;5036953;28;20116;-67
2023/09/01 05:41:17;;;;;;;14.88;10.00;;;;;;;12.86;100.00;101057.34;5055187;28;20099;-66
2023/09/01 05:43:42;;;;;;;17.85;10.68;;;;;;;12.89;100.00;101062.56;5044810;28;20681;-66
2023/09/01 05:46:08;;;;;;;15.00;9.77;;;;;;;12.92;100.00;101066.00;5039463;28;20055;-67
2023/09/01 05:48:36;;;;;;;13.77;10.50;;;;;;;12.92;100.00;101058.09;5026861;28;20037;-67
2023/09/01 05:51:01;;;;;;;14.93;10.48;;;;;;;12.96;100.00;101064.19;5053307;28;20362;-67
2023/09/01 05:53:27;;;;;;;14.23;10.20;;;;;;;12.98;100.00;101062.38;5048428;28;20082;-66
2023/09/01 05:55:53;;;;;;;10.13;8.82;;;;;;;13.03;100.00;101071.09;5011949;28;20038;-66
2023/09/01 05:58:18;;;;;;;13.90;9.52;;;;;;;13.00;100.00;101064.09;5019590;28;20062;-66
2023/09/01 06:00:44;;;;;;;13.50;9.95;;;;;;;13.07;100.00;101059.56;5025601;28;20072;-67
2023/09/01 06:03:09;;;;;;;13.48;10.18;;;;;;;13.10;100.00;101069.19;5027717;28;20127;-67
2023/09/01 06:05:34;;;;;;;12.05;10.07;;;;;;;13.13;100.00;101056.84;5041158;28;20469;-66
2023/09/01 06:08:00;;;;;;;16.83;10.55;;;;;;;13.14;100.00;101055.94;5029748;28;20065;-67
2023/09/01 06:10:25;;;;;;;15.23;10.00;;;;;;;13.17;100.00;101057.66;5033420;28;20033;-67
2023/09/01 06:12:51;;;;;;;12.45;9.10;;;;;;;13.18;100.00;101048.88;5060951;28;20473;-66
2023/09/01 06:15:16;;;;;;;14.02;9.98;;;;;;;13.23;100.00;101049.66;5045735;28;20373;-66
2023/09/01 06:17:42;;;;;;;14.57;9.90;;;;;;;13.29;100.00;101051.31;5038885;28;20056;-67
2023/09/01 06:20:08;;;;;;;13.60;9.30;;;;;;;13.30;100.00;101063.53;5019524;28;20029;-66
2023/09/01 06:22:33;;;;;;;14.68;9.60;;;;;;;13.39;100.00;101062.53;5019803;28;20039;-67
2023/09/01 06:24:59;;;;;;;12.63;9.50;;;;;;;13.40;100.00;101056.38;5079228;28;20426;-67
2023/09/01 06:27:24;;;;;;;13.55;9.25;;;;;;;13.39;100.00;101066.03;5043119;28;20388;-67
2023/09/01 06:29:50;;;;;;;14.65;10.27;;;;;;;13.40;100.00;101061.63;5014746;28;20137;-67
2023/09/01 06:32:15;;;;;;;13.57;10.07;;;;;;;13.41;100.00;101069.50;5039095;28;20360;-66
2023/09/01 06:34:41;;;;;;;13.70;9.88;;;;;;;13.45;100.00;101060.66;5060452;28;20445;-67
2023/09/01 06:37:06;;;;;;;13.93;9.90;;;;;;;13.47;100.00;101069.38;5016634;28;20420;-67
2023/09/01 06:39:32;;;;;;;17.05;10.38;;;;;;;13.51;100.00;101070.19;5037673;28;20128;-66
2023/09/01 06:41:57;;;;;;;12.95;10.50;;;;;;;13.56;100.00;101064.81;5028929;28;20484;-67
2023/09/01 06:44:23;;;;;;;11.82;10.32;;;;;;;13.60;100.00;101069.97;5019677;28;20088;-67
2023/09/01 06:46:49;;;;;;;14.23;9.95;;;;;;;13.67;100.00;101070.72;5009804;28;20033;-66
2023/09/01 06:49:15;;;;;;;12.90;10.32;;;;;;;13.66;100.00;101066.34;5006630;28;20033;-68
2023/09/01 06:51:41;;;;;;;13.15;10.07;;;;;;;13.68;100.00;101068.06;4984012;28;20035;-67
2023/09/01 06:54:06;;;;;;;12.35;10.35;;;;;;;13.69;100.00;101072.44;5000591;28;20044;-68
2023/09/01 06:56:31;;;;;;;11.13;9.75;;;;;;;13.69;100.00;101080.34;5050398;23;20098;-67
2023/09/01 06:58:59;;;;;;;14.70;10.73;;;;;;;13.74;100.00;101080.25;5075267;23;20080;-67
2023/09/01 07:01:27;;;;;;;11.77;10.52;;;;;;;13.73;100.00;101078.50;5115458;23;20056;-68
2023/09/01 07:06:20;;;;;;;14.55;11.18;;;;;;;13.77;100.00;101079.31;5132849;22;20057;-67
2023/09/01 07:08:46;;;;;;;13.48;10.82;;;;;;;13.82;100.00;101062.50;5092155;23;20056;-68
2023/09/01 07:11:14;;;;;;;13.50;10.48;;;;;;;13.87;100.00;101065.03;5076067;23;20182;-68
2023/09/01 07:13:40;;;;;;;13.68;11.55;;;;;;;13.85;100.00;101061.59;5079689;23;20059;-68
2023/09/01 07:16:06;;;;;;;14.00;11.77;;;;;;;13.86;100.00;101047.50;5222895;22;20056;-68
2023/09/01 07:18:32;;;;;;;14.18;11.68;;;;;;;13.86;100.00;101053.66;5067947;28;20456;-70
2023/09/01 07:20:59;;;;;;;14.98;11.20;;;;;;;13.85;100.00;101049.28;5084106;23;20064;-69
2023/09/01 07:23:25;;;;;;;12.73;11.43;;;;;;;13.90;100.00;101049.16;5070465;23;20060;-68
2023/09/01 07:25:52;;;;;;;12.48;11.18;;;;;;;13.90;100.00;101048.31;5179233;23;20434;-69
2023/09/01 07:28:17;;;;;;;14.77;12.23;;;;;;;13.88;100.00;101050.09;5187070;23;20048;-69
2023/09/01 07:33:18;;;;;;;13.18;11.45;;;;;;;13.87;100.00;101049.22;5127798;22;20068;-68
2023/09/01 07:38:18;;;;;;;15.02;12.68;;;;;;;13.91;100.00;101055.31;5134135;22;20056;-68
2023/09/01 07:40:45;;;;;;;13.65;11.73;;;;;;;13.91;100.00;101050.91;5077127;23;20013;-68
2023/09/01 07:43:10;;;;;;;14.77;12.23;;;;;;;13.86;100.00;101047.50;5121208;22;20049;-68
2023/09/01 07:48:11;;;;;;;14.93;12.25;;;;;;;13.85;100.00;101038.72;5067009;28;20044;-68
2023/09/01 07:50:36;;;;;;;15.02;12.05;;;;;;;13.87;100.00;101038.69;5023825;28;20037;-68
2023/09/01 07:53:02;;;;;;;15.25;12.10;;;;;;;13.89;100.00;101042.16;5039819;28;20399;-68
2023/09/01 07:55:28;;;;;;;16.10;12.02;;;;;;;13.92;100.00;101044.75;5044487;28;20040;-68
2023/09/01 07:57:53;;;;;;;15.32;12.52;;;;;;;13.95;100.00;101042.03;5054874;28;20424;-68
2023/09/01 08:00:20;;;;;;;13.38;12.05;;;;;;;13.94;100.00;101050.84;5055787;28;20464;-68
2023/09/01 08:02:46;;;;;;;15.85;12.65;;;;;;;14.00;100.00;101050.69;5071633;28;20070;-68
2023/09/01 08:05:11;;;;;;;14.20;12.65;;;;;;;14.01;100.00;101055.06;5039504;28;20146;-68
2023/09/01 08:07:37;;;;;;;14.32;12.82;;;;;;;14.02;100.00;101056.81;5052939;28;20065;-68
2023/09/01 08:10:04;;;;;;;14.43;12.50;;;;;;;14.09;100.00;101057.50;5051376;28;20035;-68
2023/09/01 08:12:29;;;;;;;15.18;12.82;;;;;;;14.08;100.00;101061.06;5041983;28;20128;-68
2023/09/01 08:14:55;;;;;;;16.40;13.20;;;;;;;14.16;100.00;101066.16;5069964;28;20107;-67
2023/09/01 08:17:21;;;;;;;14.73;13.23;;;;;;;14.14;100.00;101066.19;5070072;28;20024;-68
2023/09/01 08:19:47;;;;;;;17.88;13.65;;;;;;;14.13;100.00;101075.00;5050411;28;20098;-68
2023/09/01 08:22:13;;;;;;;17.10;13.20;;;;;;;14.16;100.00;101074.06;5060931;28;20024;-68
2023/09/01 08:24:42;;;;;;;14.55;12.95;;;;;;;14.18;100.00;101077.53;5060478;28;20104;-68
2023/09/01 08:27:08;;;;;;;14.85;13.18;;;;;;;14.15;100.00;101075.84;5071156;28;20037;-68
2023/09/01 08:29:33;;;;;;;14.85;13.27;;;;;;;14.18;100.00;101086.31;5056074;28;20494;-68
2023/09/01 08:32:00;;;;;;;14.65;12.98;;;;;;;14.25;100.00;101092.31;5049352;28;20024;-67
2023/09/01 08:34:27;;;;;;;14.40;12.95;;;;;;;14.21;100.00;101086.22;5060300;28;20391;-68
2023/09/01 08:36:53;;;;;;;14.95;12.50;;;;;;;14.20;100.00;101087.13;5048467;28;20067;-67
2023/09/01 08:39:18;;;;;;;15.25;12.75;;;;;;;14.16;100.00;101077.53;5054877;28;20068;-68
2023/09/01 08:41:45;;;;;;;15.88;14.32;;;;;;;14.23;100.00;101087.97;5039918;28;20066;-68
2023/09/01 08:44:12;;;;;;;15.10;13.50;;;;;;;14.21;100.00;101090.66;5072211;28;20037;-68
2023/09/01 08:46:39;;;;;;;15.63;14.02;;;;;;;14.28;100.00;101092.25;5064218;28;20036;-68
2023/09/01 08:49:04;;;;;;;15.18;13.60;;;;;;;14.29;100.00;101098.38;5053268;28;20040;-68
2023/09/01 08:51:31;;;;;;;14.60;13.25;;;;;;;14.27;100.00;101102.81;5034738;28;20036;-68
2023/09/01 08:53:57;;;;;;;14.57;13.07;;;;;;;14.28;100.00;101096.63;5069946;28;20040;-68
2023/09/01 08:56:22;;;;;;;14.13;12.82;;;;;;;14.28;100.00;101099.25;5053615;28;20128;-68
2023/09/01 08:58:48;;;;;;;15.75;13.85;;;;;;;14.25;100.00;101096.69;5047446;28;20040;-68
2023/09/01 09:01:15;;;;;;;15.15;13.65;;;;;;;14.25;100.00;101104.59;5066834;28;20454;-69
2023/09/01 09:03:40;;;;;;;15.25;13.85;;;;;;;14.26;100.00;101114.25;5073004;28;20468;-68
2023/09/01 09:06:06;;;;;;;14.75;13.35;;;;;;;14.24;100.00;101108.13;5053471;28;20021;-68
2023/09/01 09:08:34;;;;;;;16.00;14.50;;;;;;;14.29;100.00;101103.63;5047306;28;20029;-68
2023/09/01 09:10:59;;;;;;;18.48;14.85;;;;;;;14.31;100.00;101107.09;5059087;28;20025;-68
2023/09/01 09:13:27;;;;;;;16.27;14.60;;;;;;;14.32;100.00;101115.00;5034694;28;20033;-68
2023/09/01 09:16:11;;;;;;;16.63;14.88;;;;;;;14.38;100.00;101113.97;5054389;28;20028;-68
2023/09/01 09:18:40;;;;;;;16.77;15.18;;;;;;;14.39;100.00;101123.59;5067237;28;20472;-68
2023/09/01 09:21:25;;;;;;;16.42;14.88;;;;;;;14.40;100.00;101117.44;5072626;28;20086;-68
2023/09/01 09:23:52;;;;;;;17.17;15.60;;;;;;;14.37;100.00;101113.09;5071820;28;20384;-68
2023/09/01 09:26:24;;;;;;;18.17;16.27;;;;;;;14.40;100.00;101114.81;5055365;28;20024;-68
2023/09/01 09:28:49;;;;;;;18.10;16.40;;;;;;;14.44;100.00;101115.59;5071781;28;20401;-68
2023/09/01 09:31:15;;;;;;;17.10;15.55;;;;;;;14.44;100.00;101112.94;5053113;28;20029;-68
2023/09/01 09:33:42;;;;;;;19.15;17.45;;;;;;;14.49;100.00;101114.56;5053108;28;20122;-68
2023/09/01 09:36:07;;;;;;;17.95;16.15;;;;;;;14.49;100.00;101117.22;5053347;28;20384;-68
2023/09/01 09:38:40;;;;;;;18.52;16.83;;;;;;;14.55;100.00;101121.47;5055789;28;20111;-68
2023/09/01 09:41:06;;;;;;;19.05;17.17;;;;;;;14.60;100.00;101124.03;5068438;28;20056;-68
2023/09/01 09:43:44;;;;;;;17.42;15.85;;;;;;;14.63;100.00;101126.63;5064499;28;20503;-68
2023/09/01 09:46:10;;;;;;;18.85;17.25;;;;;;;14.69;100.00;101129.09;5050050;28;20066;-68
2023/09/01 09:48:38;;;;;;;18.48;16.77;;;;;;;14.73;100.00;101128.13;5072275;28;20081;-68
2023/09/01 09:51:07;;;;;;;17.08;15.57;;;;;;;14.72;100.00;101129.91;5042652;28;20193;-68
2023/09/01 09:53:35;;;;;;;18.08;16.45;;;;;;;14.74;100.00;101124.59;5071837;28;20055;-68
2023/09/01 09:56:15;;;;;;;15.02;13.82;;;;;;;14.76;100.00;101129.81;5053438;28;20561;-68
2023/09/01 09:58:42;;;;;;;16.35;14.85;;;;;;;14.72;100.00;101129.03;5060917;28;20057;-68
2023/09/01 10:01:15;;;;;;;16.60;15.10;;;;;;;14.73;100.00;101128.97;5069636;28;20533;-67
2023/09/01 10:03:41;;;;;;;16.02;14.73;;;;;;;14.71;100.00;101135.19;5072234;28;20028;-68
2023/09/01 10:06:09;;;;;;;17.05;15.48;;;;;;;14.79;100.00;101125.31;5070656;28;20029;-68
2023/09/01 10:08:35;;;;;;;16.05;14.55;;;;;;;14.84;100.00;101123.44;5070235;28;20463;-68
2023/09/01 10:11:03;;;;;;;16.35;14.93;;;;;;;14.90;100.00;101123.28;5054450;28;20400;-67
2023/09/01 10:13:30;;;;;;;15.00;13.60;;;;;;;14.85;100.00;101119.88;5051242;28;20021;-68
2023/09/01 10:15:57;;;;;;;16.27;14.68;;;;;;;15.05;100.00;101126.44;5051255;28;20483;-68
2023/09/01 10:18:24;;;;;;;14.05;12.82;;;;;;;15.03;100.00;101128.25;5052064;28;20028;-67
2023/09/01 10:20:49;;;;;;;12.48;11.30;;;;;;;15.05;100.00;101122.00;5047576;28;20357;-68
2023/09/01 10:23:15;;;;;;;12.02;11.02;;;;;;;15.06;100.00;101120.25;5054441;28;20047;-68
2023/09/01 10:25:40;;;;;;;12.40;11.38;;;;;;;15.06;100.00;101115.84;5043677;28;20079;-68
2023/09/01 10:28:12;;;;;;;12.48;11.38;;;;;;;15.07;100.00;101117.59;5069671;28;20029;-68
2023/09/01 10:30:39;;;;;;;12.75;11.65;;;;;;;15.14;100.00;101114.78;5062592;28;20116;-68
2023/09/01 10:33:12;;;;;;;10.93;9.93;;;;;;;15.06;100.00;101110.56;5070616;28;20161;-67
2023/09/01 10:35:46;;;;;;;10.15;9.25;;;;;;;15.05;100.00;101115.88;5054834;28;20043;-68
2023/09/01 10:38:34;;;;;;;9.85;8.95;;;;;;;15.10;100.00;101114.00;5063718;28;20029;-68
2023/09/01 10:40:59;;;;;;;9.40;8.48;;;;;;;15.06;100.00;101118.47;5052023;28;20039;-68
2023/09/01 10:43:31;;;;;;;10.25;9.35;;;;;;;15.15;100.00;101116.50;5054207;28;20024;-68
2023/09/01 10:46:12;;;;;;;9.38;8.57;;;;;;;15.17;100.00;101120.84;5052627;28;20040;-68
2023/09/01 10:48:51;;;;;;;9.27;8.48;;;;;;;15.24;100.00;101122.41;5082169;28;20044;-68
2023/09/01 10:51:18;;;;;;;9.48;8.63;;;;;;;15.23;100.00;101119.81;5051596;28;20027;-68
2023/09/01 10:56:56;;;;;;;10.00;9.10;;;;;;;15.35;100.00;101135.31;5989959;22;20061;-66
2023/09/01 10:59:29;;;;;;;9.18;8.38;;;;;;;15.38;100.00;101137.88;5032053;28;20061;-66
2023/09/01 11:01:55;;;;;;;8.68;7.97;;;;;;;15.37;100.00;101127.34;5036233;28;20436;-66
2023/09/01 11:04:20;;;;;;;9.73;8.85;;;;;;;15.54;100.00;101134.81;5032086;28;20029;-65
2023/09/01 11:06:58;;;;;;;10.07;9.13;;;;;;;15.61;100.00;101143.44;5025060;28;20022;-65
2023/09/01 11:09:43;;;;;;;9.68;8.88;;;;;;;15.69;100.00;101141.47;5037214;28;20025;-66
2023/09/01 11:12:10;;;;;;;8.85;8.05;;;;;;;15.83;100.00;101135.78;5046250;28;20028;-66
2023/09/01 11:14:37;;;;;;;8.43;7.70;;;;;;;15.87;100.00;101137.44;5027596;28;20033;-66
2023/09/01 11:17:03;;;;;;;9.18;8.35;;;;;;;15.90;100.00;101138.22;5011741;28;20490;-66